sensor_id;sensor_type;location;lat;lon;timestamp;pressure;altitude;pressure_sealevel;temperature;humidity
8717;BME280;4395;48.554;8.820;2023-08-21T00:01:32;96482.25;;;24.18;100.00
8717;BME280;4395;48.554;8.820;2023-08-21T00:03:34;96472.72;;;24.24;100.00
8717;BME280;4395;48.554;8.820;2023-08-21T00:05:37;96484.19;;;24.09;100.00
8717;BME280;4395;48.554;8.820;2023-08-21T00:07:40;96479.47;;;24.44;100.00
8717;BME280;4395;48.554;8.820;2023-08-21T00:09:42;96472.97;;;24.57;100.00
8717;BME280;4395;48.554;8.820;2023-08-21T00:11:45;96480.25;;;24.62;100.00
8717;BME280;4395;48.554;8.820;2023-08-21T00:13:48;96476.22;;;24.59;100.00
8717;BME280;4395;48.554;8.820;2023-08-21T00:15:52;96479.34;;;24.41;100.00
8717;BME280;4395;48.554;8.820;2023-08-21T00:17:55;96474.66;;;24.24;100.00
8717;BME280;4395;48.554;8.820;2023-08-21T00:19:58;96482.44;;;23.70;100.00
8717;BME280;4395;48.554;8.820;2023-08-21T00:22:01;96477.75;;;23.79;100.00
8717;BME280;4395;48.554;8.820;2023-08-21T00:24:03;96471.94;;;23.89;100.00
8717;BME280;4395;48.554;8.820;2023-08-21T00:26:06;96474.38;;;23.99;100.00
8717;BME280;4395;48.554;8.820;2023-08-21T00:28:09;96464.97;;;24.35;100.00
8717;BME280;4395;48.554;8.820;2023-08-21T00:30:12;96464.81;;;24.14;100.00
8717;BME280;4395;48.554;8.820;2023-08-21T00:32:17;96470.47;;;24.26;100.00
8717;BME280;4395;48.554;8.820;2023-08-21T00:34:20;96472.69;;;24.50;100.00
8717;BME280;4395;48.554;8.820;2023-08-21T00:36:23;96475.13;;;24.43;100.00
8717;BME280;4395;48.554;8.820;2023-08-21T00:38:26;96469.69;;;23.83;100.00
8717;BME280;4395;48.554;8.820;2023-08-21T00:40:30;96459.97;;;24.11;100.00
8717;BME280;4395;48.554;8.820;2023-08-21T00:42:34;96455.63;;;23.93;100.00
8717;BME280;4395;48.554;8.820;2023-08-21T00:44:38;96460.28;;;24.18;100.00
8717;BME280;4395;48.554;8.820;2023-08-21T00:46:40;96463.72;;;23.89;100.00
8717;BME280;4395;48.554;8.820;2023-08-21T00:48:44;96464.22;;;23.74;100.00
8717;BME280;4395;48.554;8.820;2023-08-21T00:50:47;96455.31;;;23.94;100.00
8717;BME280;4395;48.554;8.820;2023-08-21T00:52:51;96449.53;;;23.70;100.00
8717;BME280;4395;48.554;8.820;2023-08-21T00:54:54;96449.34;;;24.01;100.00
8717;BME280;4395;48.554;8.820;2023-08-21T00:56:58;96451.75;;;24.02;100.00
8717;BME280;4395;48.554;8.820;2023-08-21T00:59:01;96449.03;;;23.68;100.00
8717;BME280;4395;48.554;8.820;2023-08-21T01:01:03;96452.41;;;23.82;100.00
8717;BME280;4395;48.554;8.820;2023-08-21T01:03:07;96451.78;;;23.59;100.00
8717;BME280;4395;48.554;8.820;2023-08-21T01:05:11;96455.44;;;23.46;100.00
8717;BME280;4395;48.554;8.820;2023-08-21T01:07:14;96454.34;;;23.56;100.00
8717;BME280;4395;48.554;8.820;2023-08-21T01:09:23;96451.22;;;23.40;100.00
8717;BME280;4395;48.554;8.820;2023-08-21T01:11:35;96453.31;;;23.34;100.00
8717;BME280;4395;48.554;8.820;2023-08-21T01:13:47;96448.38;;;23.62;100.00
8717;BME280;4395;48.554;8.820;2023-08-21T01:15:55;96458.94;;;23.29;100.00
8717;BME280;4395;48.554;8.820;2023-08-21T01:17:59;96458.69;;;23.48;100.00
8717;BME280;4395;48.554;8.820;2023-08-21T01:20:03;96456.69;;;23.40;100.00
8717;BME280;4395;48.554;8.820;2023-08-21T01:22:09;96456.06;;;23.34;100.00
8717;BME280;4395;48.554;8.820;2023-08-21T01:24:13;96460.41;;;23.35;100.00
8717;BME280;4395;48.554;8.820;2023-08-21T01:26:16;96457.34;;;23.28;100.00
8717;BME280;4395;48.554;8.820;2023-08-21T01:28:19;96456.59;;;23.54;100.00
8717;BME280;4395;48.554;8.820;2023-08-21T01:30:22;96454.19;;;23.87;100.00
8717;BME280;4395;48.554;8.820;2023-08-21T01:32:29;96460.66;;;23.56;100.00
8717;BME280;4395;48.554;8.820;2023-08-21T01:34:34;96454.59;;;23.28;100.00
8717;BME280;4395;48.554;8.820;2023-08-21T01:36:37;96455.03;;;23.13;100.00
8717;BME280;4395;48.554;8.820;2023-08-21T01:38:42;96458.25;;;23.06;100.00
8717;BME280;4395;48.554;8.820;2023-08-21T01:40:48;96457.28;;;23.02;100.00
8717;BME280;4395;48.554;8.820;2023-08-21T01:42:52;96450.38;;;23.22;100.00
8717;BME280;4395;48.554;8.820;2023-08-21T01:44:55;96456.56;;;23.45;100.00
8717;BME280;4395;48.554;8.820;2023-08-21T01:46:58;96446.28;;;23.59;100.00
8717;BME280;4395;48.554;8.820;2023-08-21T01:49:00;96451.44;;;23.95;100.00
8717;BME280;4395;48.554;8.820;2023-08-21T01:51:03;96448.50;;;24.18;100.00
8717;BME280;4395;48.554;8.820;2023-08-21T01:53:06;96453.00;;;24.22;100.00
8717;BME280;4395;48.554;8.820;2023-08-21T01:55:09;96458.66;;;24.26;100.00
8717;BME280;4395;48.554;8.820;2023-08-21T01:57:14;96432.06;;;23.83;100.00
8717;BME280;4395;48.554;8.820;2023-08-21T01:59:17;96455.44;;;23.46;100.00
8717;BME280;4395;48.554;8.820;2023-08-21T02:01:19;96452.88;;;23.50;100.00
8717;BME280;4395;48.554;8.820;2023-08-21T02:03:24;96458.03;;;23.42;100.00
8717;BME280;4395;48.554;8.820;2023-08-21T02:05:28;96449.00;;;23.51;100.00
8717;BME280;4395;48.554;8.820;2023-08-21T02:07:31;96457.88;;;23.48;100.00
8717;BME280;4395;48.554;8.820;2023-08-21T02:09:33;96458.06;;;23.60;100.00
8717;BME280;4395;48.554;8.820;2023-08-21T02:11:36;96462.97;;;23.32;100.00
8717;BME280;4395;48.554;8.820;2023-08-21T02:13:41;96462.97;;;23.23;100.00
8717;BME280;4395;48.554;8.820;2023-08-21T02:15:43;96455.66;;;23.01;100.00
8717;BME280;4395;48.554;8.820;2023-08-21T02:17:46;96459.16;;;22.85;100.00
8717;BME280;4395;48.554;8.820;2023-08-21T02:19:49;96451.28;;;22.92;100.00
8717;BME280;4395;48.554;8.820;2023-08-21T02:21:52;96447.66;;;23.31;100.00
8717;BME280;4395;48.554;8.820;2023-08-21T02:23:55;96449.06;;;23.11;100.00
8717;BME280;4395;48.554;8.820;2023-08-21T02:25:58;96461.16;;;23.01;100.00
8717;BME280;4395;48.554;8.820;2023-08-21T02:28:00;96446.38;;;22.09;100.00
8717;BME280;4395;48.554;8.820;2023-08-21T02:30:05;96449.75;;;21.70;100.00
8717;BME280;4395;48.554;8.820;2023-08-21T02:32:09;96459.47;;;21.99;100.00
8717;BME280;4395;48.554;8.820;2023-08-21T02:34:14;96454.28;;;22.42;100.00
8717;BME280;4395;48.554;8.820;2023-08-21T02:36:16;96459.78;;;22.82;100.00
8717;BME280;4395;48.554;8.820;2023-08-21T02:38:19;96465.88;;;23.18;100.00
8717;BME280;4395;48.554;8.820;2023-08-21T02:40:22;96446.88;;;23.39;100.00
8717;BME280;4395;48.554;8.820;2023-08-21T02:42:25;96461.31;;;23.62;100.00
8717;BME280;4395;48.554;8.820;2023-08-21T02:44:27;96461.63;;;23.69;100.00
8717;BME280;4395;48.554;8.820;2023-08-21T02:46:31;96460.66;;;23.73;100.00
8717;BME280;4395;48.554;8.820;2023-08-21T02:48:35;96459.69;;;23.87;100.00
8717;BME280;4395;48.554;8.820;2023-08-21T02:50:37;96464.69;;;23.93;100.00
8717;BME280;4395;48.554;8.820;2023-08-21T02:52:40;96454.03;;;23.83;100.00
8717;BME280;4395;48.554;8.820;2023-08-21T02:54:43;96456.59;;;23.54;100.00
8717;BME280;4395;48.554;8.820;2023-08-21T02:56:46;96463.63;;;23.37;100.00
8717;BME280;4395;48.554;8.820;2023-08-21T02:58:49;96462.09;;;22.97;100.00
8717;BME280;4395;48.554;8.820;2023-08-21T03:00:52;96465.47;;;22.94;100.00
8717;BME280;4395;48.554;8.820;2023-08-21T03:02:56;96462.88;;;22.89;100.00
8717;BME280;4395;48.554;8.820;2023-08-21T03:05:00;96470.00;;;22.98;100.00
8717;BME280;4395;48.554;8.820;2023-08-21T03:07:03;96464.84;;;22.97;100.00
8717;BME280;4395;48.554;8.820;2023-08-21T03:09:05;96467.34;;;22.45;100.00
8717;BME280;4395;48.554;8.820;2023-08-21T03:11:08;96460.59;;;22.51;100.00
8717;BME280;4395;48.554;8.820;2023-08-21T03:13:11;96463.88;;;22.62;100.00
8717;BME280;4395;48.554;8.820;2023-08-21T03:15:13;96461.44;;;22.60;100.00
8717;BME280;4395;48.554;8.820;2023-08-21T03:17:16;96459.66;;;22.25;100.00
8717;BME280;4395;48.554;8.820;2023-08-21T03:19:20;96451.97;;;22.04;100.00
8717;BME280;4395;48.554;8.820;2023-08-21T03:21:23;96451.69;;;21.92;100.00
8717;BME280;4395;48.554;8.820;2023-08-21T03:23:26;96456.72;;;21.99;100.00
8717;BME280;4395;48.554;8.820;2023-08-21T03:25:28;96455.31;;;22.01;100.00
8717;BME280;4395;48.554;8.820;2023-08-21T03:27:31;96456.78;;;21.85;100.00
8717;BME280;4395;48.554;8.820;2023-08-21T03:29:34;96454.97;;;21.58;100.00
8717;BME280;4395;48.554;8.820;2023-08-21T03:31:37;96461.09;;;21.41;100.00
8717;BME280;4395;48.554;8.820;2023-08-21T03:33:42;96457.59;;;21.27;100.00
8717;BME280;4395;48.554;8.820;2023-08-21T03:35:53;96454.63;;;21.37;100.00
8717;BME280;4395;48.554;8.820;2023-08-21T03:37:57;96448.06;;;21.38;100.00
8717;BME280;4395;48.554;8.820;2023-08-21T03:40:06;96440.63;;;21.53;100.00
8717;BME280;4395;48.554;8.820;2023-08-21T03:42:08;96451.25;;;21.54;100.00
8717;BME280;4395;48.554;8.820;2023-08-21T03:44:12;96445.78;;;21.54;100.00
8717;BME280;4395;48.554;8.820;2023-08-21T03:46:15;96444.19;;;21.39;100.00
8717;BME280;4395;48.554;8.820;2023-08-21T03:48:18;96448.97;;;21.70;100.00
8717;BME280;4395;48.554;8.820;2023-08-21T03:50:21;96450.16;;;22.22;100.00
8717;BME280;4395;48.554;8.820;2023-08-21T03:52:25;96451.03;;;22.40;100.00
8717;BME280;4395;48.554;8.820;2023-08-21T03:54:27;96459.97;;;22.85;100.00
8717;BME280;4395;48.554;8.820;2023-08-21T03:56:30;96452.78;;;23.15;100.00
8717;BME280;4395;48.554;8.820;2023-08-21T03:58:33;96463.97;;;23.36;100.00
8717;BME280;4395;48.554;8.820;2023-08-21T04:00:36;96465.09;;;23.35;100.00
8717;BME280;4395;48.554;8.820;2023-08-21T04:02:39;96464.91;;;23.23;100.00
8717;BME280;4395;48.554;8.820;2023-08-21T04:04:42;96473.03;;;23.45;100.00
8717;BME280;4395;48.554;8.820;2023-08-21T04:06:45;96469.59;;;23.22;100.00
8717;BME280;4395;48.554;8.820;2023-08-21T04:08:49;96473.47;;;23.30;100.00
8717;BME280;4395;48.554;8.820;2023-08-21T04:10:53;96465.06;;;23.26;100.00
8717;BME280;4395;48.554;8.820;2023-08-21T04:12:56;96469.66;;;23.48;100.00
8717;BME280;4395;48.554;8.820;2023-08-21T04:14:59;96467.28;;;23.64;100.00
8717;BME280;4395;48.554;8.820;2023-08-21T04:17:01;96476.19;;;23.21;100.00
8717;BME280;4395;48.554;8.820;2023-08-21T04:19:05;96482.84;;;23.37;100.00
8717;BME280;4395;48.554;8.820;2023-08-21T04:21:08;96481.28;;;22.97;100.00
8717;BME280;4395;48.554;8.820;2023-08-21T04:23:11;96487.50;;;22.49;100.00
8717;BME280;4395;48.554;8.820;2023-08-21T04:25:15;96478.38;;;22.31;100.00
8717;BME280;4395;48.554;8.820;2023-08-21T04:27:18;96478.78;;;22.47;100.00
8717;BME280;4395;48.554;8.820;2023-08-21T04:29:21;96480.41;;;22.48;100.00
8717;BME280;4395;48.554;8.820;2023-08-21T04:31:24;96485.53;;;22.19;100.00
8717;BME280;4395;48.554;8.820;2023-08-21T04:33:28;96481.44;;;22.07;100.00
8717;BME280;4395;48.554;8.820;2023-08-21T04:35:36;96480.75;;;22.02;100.00
8717;BME280;4395;48.554;8.820;2023-08-21T04:37:46;96482.56;;;22.60;100.00
8717;BME280;4395;48.554;8.820;2023-08-21T04:39:51;96486.59;;;22.62;100.00
8717;BME280;4395;48.554;8.820;2023-08-21T04:41:55;96493.88;;;22.67;100.00
8717;BME280;4395;48.554;8.820;2023-08-21T04:43:58;96493.88;;;22.67;100.00
8717;BME280;4395;48.554;8.820;2023-08-21T04:46:02;96490.47;;;22.61;100.00
8717;BME280;4395;48.554;8.820;2023-08-21T04:48:05;96489.97;;;22.59;100.00
8717;BME280;4395;48.554;8.820;2023-08-21T04:50:09;96491.25;;;22.62;100.00
8717;BME280;4395;48.554;8.820;2023-08-21T04:52:12;96491.59;;;22.60;100.00
8717;BME280;4395;48.554;8.820;2023-08-21T04:54:14;96494.59;;;22.50;100.00
8717;BME280;4395;48.554;8.820;2023-08-21T04:56:18;96493.00;;;22.58;100.00
8717;BME280;4395;48.554;8.820;2023-08-21T04:58:23;96494.94;;;22.57;100.00
8717;BME280;4395;48.554;8.820;2023-08-21T05:00:26;96495.09;;;22.52;100.00
8717;BME280;4395;48.554;8.820;2023-08-21T05:02:29;96497.78;;;22.43;100.00
8717;BME280;4395;48.554;8.820;2023-08-21T05:04:35;96498.44;;;22.49;100.00
8717;BME280;4395;48.554;8.820;2023-08-21T05:06:38;96496.56;;;22.58;100.00
8717;BME280;4395;48.554;8.820;2023-08-21T05:08:41;96505.78;;;22.62;100.00
8717;BME280;4395;48.554;8.820;2023-08-21T05:10:45;96506.25;;;22.64;100.00
8717;BME280;4395;48.554;8.820;2023-08-21T05:12:47;96510.13;;;22.63;100.00
8717;BME280;4395;48.554;8.820;2023-08-21T05:14:53;96512.72;;;22.68;100.00
8717;BME280;4395;48.554;8.820;2023-08-21T05:16:58;96515.97;;;22.70;100.00
8717;BME280;4395;48.554;8.820;2023-08-21T05:19:00;96510.78;;;22.69;100.00
8717;BME280;4395;48.554;8.820;2023-08-21T05:21:03;96514.34;;;22.69;100.00
8717;BME280;4395;48.554;8.820;2023-08-21T05:23:06;96517.56;;;22.71;100.00
8717;BME280;4395;48.554;8.820;2023-08-21T05:25:10;96518.88;;;22.74;100.00
8717;BME280;4395;48.554;8.820;2023-08-21T05:27:13;96517.44;;;22.76;100.00
8717;BME280;4395;48.554;8.820;2023-08-21T05:29:16;96518.25;;;22.77;100.00
8717;BME280;4395;48.554;8.820;2023-08-21T05:31:20;96520.66;;;22.78;100.00
8717;BME280;4395;48.554;8.820;2023-08-21T05:33:26;96524.03;;;22.75;100.00
8717;BME280;4395;48.554;8.820;2023-08-21T05:35:32;96523.16;;;22.89;100.00
8717;BME280;4395;48.554;8.820;2023-08-21T05:37:35;96520.91;;;22.91;100.00
8717;BME280;4395;48.554;8.820;2023-08-21T05:39:40;96522.38;;;22.97;100.00
8717;BME280;4395;48.554;8.820;2023-08-21T05:41:42;96529.97;;;23.00;100.00
8717;BME280;4395;48.554;8.820;2023-08-21T05:43:46;96524.50;;;23.00;100.00
8717;BME280;4395;48.554;8.820;2023-08-21T05:45:49;96525.47;;;23.04;100.00
8717;BME280;4395;48.554;8.820;2023-08-21T05:47:57;96504.66;;;22.94;100.00
8717;BME280;4395;48.554;8.820;2023-08-21T05:49:59;96533.91;;;23.16;100.00
8717;BME280;4395;48.554;8.820;2023-08-21T05:52:03;96530.88;;;23.26;100.00
8717;BME280;4395;48.554;8.820;2023-08-21T05:54:05;96528.28;;;23.21;100.00
8717;BME280;4395;48.554;8.820;2023-08-21T05:56:11;96526.22;;;23.35;100.00
8717;BME280;4395;48.554;8.820;2023-08-21T05:58:14;96528.84;;;23.40;100.00
8717;BME280;4395;48.554;8.820;2023-08-21T06:00:17;96527.56;;;23.47;100.00
8717;BME280;4395;48.554;8.820;2023-08-21T06:02:20;96535.16;;;23.50;100.00
8717;BME280;4395;48.554;8.820;2023-08-21T06:04:24;96522.56;;;23.49;100.00
8717;BME280;4395;48.554;8.820;2023-08-21T06:06:34;96533.75;;;23.61;100.00
8717;BME280;4395;48.554;8.820;2023-08-21T06:08:37;96531.78;;;23.53;100.00
8717;BME280;4395;48.554;8.820;2023-08-21T06:10:40;96529.72;;;23.67;100.00
8717;BME280;4395;48.554;8.820;2023-08-21T06:12:43;96540.22;;;23.82;100.00
8717;BME280;4395;48.554;8.820;2023-08-21T06:14:46;96539.25;;;23.78;100.00
8717;BME280;4395;48.554;8.820;2023-08-21T06:16:50;96536.84;;;23.85;100.00
8717;BME280;4395;48.554;8.820;2023-08-21T06:18:53;96540.41;;;23.94;100.00
8717;BME280;4395;48.554;8.820;2023-08-21T06:20:58;96535.88;;;23.90;100.00
8717;BME280;4395;48.554;8.820;2023-08-21T06:23:00;96532.31;;;24.15;100.00
8717;BME280;4395;48.554;8.820;2023-08-21T06:25:04;96445.00;;;23.74;100.00
8717;BME280;4395;48.554;8.820;2023-08-21T06:27:07;96535.06;;;24.24;100.00
8717;BME280;4395;48.554;8.820;2023-08-21T06:29:10;96530.91;;;24.26;100.00
8717;BME280;4395;48.554;8.820;2023-08-21T06:31:14;96532.97;;;24.38;100.00
8717;BME280;4395;48.554;8.820;2023-08-21T06:33:17;96533.13;;;24.42;100.00
8717;BME280;4395;48.554;8.820;2023-08-21T06:35:20;96537.97;;;24.53;100.00
8717;BME280;4395;48.554;8.820;2023-08-21T06:37:28;96536.00;;;24.62;100.00
8717;BME280;4395;48.554;8.820;2023-08-21T06:39:31;96533.53;;;24.78;100.00
8717;BME280;4395;48.554;8.820;2023-08-21T06:41:35;96536.44;;;24.82;100.00
8717;BME280;4395;48.554;8.820;2023-08-21T06:43:38;96538.34;;;24.90;100.00
8717;BME280;4395;48.554;8.820;2023-08-21T06:45:46;96542.53;;;25.05;100.00
8717;BME280;4395;48.554;8.820;2023-08-21T06:47:49;96542.13;;;25.23;100.00
8717;BME280;4395;48.554;8.820;2023-08-21T06:49:53;96543.06;;;25.27;100.00
8717;BME280;4395;48.554;8.820;2023-08-21T06:51:56;96547.25;;;25.33;100.00
8717;BME280;4395;48.554;8.820;2023-08-21T06:54:00;96545.38;;;25.46;100.00
8717;BME280;4395;48.554;8.820;2023-08-21T06:56:03;96545.06;;;25.48;100.00
8717;BME280;4395;48.554;8.820;2023-08-21T06:58:06;96548.34;;;25.71;100.00
8717;BME280;4395;48.554;8.820;2023-08-21T07:00:10;96551.44;;;25.69;100.00
8717;BME280;4395;48.554;8.820;2023-08-21T07:02:13;96555.81;;;25.70;100.00
8717;BME280;4395;48.554;8.820;2023-08-21T07:04:15;96549.16;;;25.71;100.00
8717;BME280;4395;48.554;8.820;2023-08-21T07:06:19;96548.22;;;25.88;100.00
8717;BME280;4395;48.554;8.820;2023-08-21T07:08:22;96559.16;;;26.05;100.00
8717;BME280;4395;48.554;8.820;2023-08-21T07:10:26;96555.47;;;25.92;100.00
8717;BME280;4395;48.554;8.820;2023-08-21T07:12:29;96552.75;;;26.13;100.00
8717;BME280;4395;48.554;8.820;2023-08-21T07:14:32;96554.91;;;26.08;100.00
8717;BME280;4395;48.554;8.820;2023-08-21T07:16:34;96560.06;;;26.30;100.00
8717;BME280;4395;48.554;8.820;2023-08-21T07:18:38;96559.00;;;26.43;100.00
8717;BME280;4395;48.554;8.820;2023-08-21T07:20:41;96551.81;;;26.30;100.00
8717;BME280;4395;48.554;8.820;2023-08-21T07:22:44;96561.88;;;26.47;100.00
8717;BME280;4395;48.554;8.820;2023-08-21T07:24:46;96561.00;;;26.55;100.00
8717;BME280;4395;48.554;8.820;2023-08-21T07:26:51;96556.22;;;26.64;100.00
8717;BME280;4395;48.554;8.820;2023-08-21T07:28:54;96562.63;;;26.56;100.00
8717;BME280;4395;48.554;8.820;2023-08-21T07:30:58;96559.34;;;26.75;100.00
8717;BME280;4395;48.554;8.820;2023-08-21T07:33:00;96556.63;;;26.87;100.00
8717;BME280;4395;48.554;8.820;2023-08-21T07:35:05;96559.09;;;26.68;100.00
8717;BME280;4395;48.554;8.820;2023-08-21T07:37:08;96562.44;;;26.73;100.00
8717;BME280;4395;48.554;8.820;2023-08-21T07:39:11;96564.19;;;26.78;100.00
8717;BME280;4395;48.554;8.820;2023-08-21T07:41:13;96559.88;;;27.01;100.00
8717;BME280;4395;48.554;8.820;2023-08-21T07:43:18;96561.06;;;27.25;100.00
8717;BME280;4395;48.554;8.820;2023-08-21T07:45:20;96560.25;;;27.12;100.00
8717;BME280;4395;48.554;8.820;2023-08-21T07:47:23;96563.25;;;27.19;100.00
8717;BME280;4395;48.554;8.820;2023-08-21T07:49:26;96560.72;;;27.38;100.00
8717;BME280;4395;48.554;8.820;2023-08-21T07:51:29;96556.59;;;27.44;100.00
8717;BME280;4395;48.554;8.820;2023-08-21T07:53:32;96557.84;;;27.47;100.00
8717;BME280;4395;48.554;8.820;2023-08-21T07:55:36;96559.00;;;27.34;100.00
8717;BME280;4395;48.554;8.820;2023-08-21T07:57:39;96559.69;;;27.31;100.00
8717;BME280;4395;48.554;8.820;2023-08-21T07:59:42;96559.69;;;27.31;100.00
8717;BME280;4395;48.554;8.820;2023-08-21T08:01:45;96542.91;;;27.23;100.00
8717;BME280;4395;48.554;8.820;2023-08-21T08:03:48;96555.31;;;27.30;100.00
8717;BME280;4395;48.554;8.820;2023-08-21T08:05:51;96557.03;;;27.59;100.00
8717;BME280;4395;48.554;8.820;2023-08-21T08:07:56;96561.41;;;27.60;100.00
8717;BME280;4395;48.554;8.820;2023-08-21T08:09:59;96563.59;;;27.78;100.00
8717;BME280;4395;48.554;8.820;2023-08-21T08:12:02;96569.34;;;27.85;100.00
8717;BME280;4395;48.554;8.820;2023-08-21T08:14:08;96572.34;;;27.93;100.00
8717;BME280;4395;48.554;8.820;2023-08-21T08:16:12;96571.19;;;27.94;100.00
8717;BME280;4395;48.554;8.820;2023-08-21T08:18:15;96571.13;;;28.18;100.00
8717;BME280;4395;48.554;8.820;2023-08-21T08:20:18;96575.69;;;28.38;100.00
8717;BME280;4395;48.554;8.820;2023-08-21T08:22:21;96573.06;;;28.30;100.00
8717;BME280;4395;48.554;8.820;2023-08-21T08:24:23;96567.59;;;28.45;100.00
8717;BME280;4395;48.554;8.820;2023-08-21T08:26:26;96561.03;;;28.50;100.00
8717;BME280;4395;48.554;8.820;2023-08-21T08:28:29;96558.97;;;28.47;100.00
8717;BME280;4395;48.554;8.820;2023-08-21T08:30:32;96565.31;;;28.75;100.00
8717;BME280;4395;48.554;8.820;2023-08-21T08:32:36;96555.75;;;28.73;100.00
8717;BME280;4395;48.554;8.820;2023-08-21T08:34:40;96562.34;;;28.68;100.00
8717;BME280;4395;48.554;8.820;2023-08-21T08:36:42;96561.44;;;28.92;100.00
8717;BME280;4395;48.554;8.820;2023-08-21T08:38:45;96565.66;;;29.18;99.90
8717;BME280;4395;48.554;8.820;2023-08-21T08:40:50;96564.50;;;29.19;98.78
8717;BME280;4395;48.554;8.820;2023-08-21T08:42:53;96565.66;;;29.33;97.99
8717;BME280;4395;48.554;8.820;2023-08-21T08:44:56;96556.38;;;29.41;97.20
8717;BME280;4395;48.554;8.820;2023-08-21T08:47:04;96564.41;;;29.62;96.36
8717;BME280;4395;48.554;8.820;2023-08-21T08:49:09;96566.94;;;29.52;96.86
8717;BME280;4395;48.554;8.820;2023-08-21T08:51:12;96557.09;;;29.23;97.65
8717;BME280;4395;48.554;8.820;2023-08-21T08:53:16;96568.25;;;29.42;97.36
8717;BME280;4395;48.554;8.820;2023-08-21T08:55:20;96558.97;;;29.50;96.51
8717;BME280;4395;48.554;8.820;2023-08-21T08:57:22;96561.66;;;29.97;95.12
8717;BME280;4395;48.554;8.820;2023-08-21T08:59:25;96559.38;;;29.84;93.40
8717;BME280;4395;48.554;8.820;2023-08-21T09:01:29;96560.31;;;30.07;90.85
8717;BME280;4395;48.554;8.820;2023-08-21T09:03:32;96558.44;;;30.11;90.28
8717;BME280;4395;48.554;8.820;2023-08-21T09:05:36;96557.28;;;30.31;90.07
8717;BME280;4395;48.554;8.820;2023-08-21T09:07:39;96540.00;;;30.19;89.30
8717;BME280;4395;48.554;8.820;2023-08-21T09:09:45;96565.44;;;30.44;90.58
8717;BME280;4395;48.554;8.820;2023-08-21T09:11:48;96561.38;;;30.37;89.75
8717;BME280;4395;48.554;8.820;2023-08-21T09:13:53;96545.59;;;30.22;89.46
8717;BME280;4395;48.554;8.820;2023-08-21T09:15:55;96561.22;;;30.50;86.11
8717;BME280;4395;48.554;8.820;2023-08-21T09:17:58;96560.34;;;30.26;88.90
8717;BME280;4395;48.554;8.820;2023-08-21T09:20:05;96558.16;;;30.00;90.02
8717;BME280;4395;48.554;8.820;2023-08-21T09:22:11;96557.41;;;30.58;84.94
8717;BME280;4395;48.554;8.820;2023-08-21T09:24:14;96558.72;;;30.83;81.53
8717;BME280;4395;48.554;8.820;2023-08-21T09:26:20;96564.41;;;30.90;79.94
8717;BME280;4395;48.554;8.820;2023-08-21T09:28:23;96556.34;;;31.04;80.39
8717;BME280;4395;48.554;8.820;2023-08-21T09:30:25;96558.03;;;31.09;80.90
8717;BME280;4395;48.554;8.820;2023-08-21T09:32:28;96559.06;;;31.43;79.96
8717;BME280;4395;48.554;8.820;2023-08-21T09:34:33;96557.78;;;31.37;79.20
8717;BME280;4395;48.554;8.820;2023-08-21T09:36:35;96556.09;;;31.55;78.39
8717;BME280;4395;48.554;8.820;2023-08-21T09:38:39;96555.28;;;31.78;77.44
8717;BME280;4395;48.554;8.820;2023-08-21T09:40:44;96556.56;;;31.84;77.22
8717;BME280;4395;48.554;8.820;2023-08-21T09:42:52;96556.41;;;31.50;79.36
8717;BME280;4395;48.554;8.820;2023-08-21T09:44:55;96557.63;;;31.53;77.87
8717;BME280;4395;48.554;8.820;2023-08-21T09:46:58;96558.84;;;31.78;78.03
8717;BME280;4395;48.554;8.820;2023-08-21T09:49:01;96554.69;;;32.21;75.56
8717;BME280;4395;48.554;8.820;2023-08-21T09:51:05;96548.34;;;32.21;76.77
8717;BME280;4395;48.554;8.820;2023-08-21T09:53:08;96546.47;;;32.28;75.92
8717;BME280;4395;48.554;8.820;2023-08-21T09:55:13;96556.38;;;32.26;75.75
8717;BME280;4395;48.554;8.820;2023-08-21T09:57:15;96552.09;;;32.06;75.24
8717;BME280;4395;48.554;8.820;2023-08-21T09:59:18;96553.41;;;32.15;76.51
8717;BME280;4395;48.554;8.820;2023-08-21T10:01:22;96550.00;;;32.25;75.54
8717;BME280;4395;48.554;8.820;2023-08-21T10:03:25;96533.63;;;31.41;78.01
8717;BME280;4395;48.554;8.820;2023-08-21T10:05:30;96536.41;;;32.20;75.02
8717;BME280;4395;48.554;8.820;2023-08-21T10:07:34;96543.69;;;31.49;76.61
8717;BME280;4395;48.554;8.820;2023-08-21T10:09:38;96543.09;;;31.86;73.98
8717;BME280;4395;48.554;8.820;2023-08-21T10:11:43;96538.81;;;32.22;72.27
8717;BME280;4395;48.554;8.820;2023-08-21T10:13:46;96544.19;;;32.71;71.07
8717;BME280;4395;48.554;8.820;2023-08-21T10:15:49;96517.91;;;32.65;72.41
8717;BME280;4395;48.554;8.820;2023-08-21T10:17:52;96526.84;;;33.22;70.63
8717;BME280;4395;48.554;8.820;2023-08-21T10:19:55;96531.25;;;33.27;69.50
8717;BME280;4395;48.554;8.820;2023-08-21T10:21:58;96524.06;;;33.70;66.73
8717;BME280;4395;48.554;8.820;2023-08-21T10:24:01;96522.28;;;33.92;67.87
8717;BME280;4395;48.554;8.820;2023-08-21T10:26:06;96514.38;;;34.04;64.92
8717;BME280;4395;48.554;8.820;2023-08-21T10:28:11;96515.91;;;33.91;63.44
8717;BME280;4395;48.554;8.820;2023-08-21T10:30:14;96517.53;;;33.99;64.86
8717;BME280;4395;48.554;8.820;2023-08-21T10:32:22;96514.28;;;33.86;67.59
8717;BME280;4395;48.554;8.820;2023-08-21T10:34:31;96509.56;;;33.98;67.86
8717;BME280;4395;48.554;8.820;2023-08-21T10:39:15;96508.03;;;34.07;63.58
8717;BME280;4395;48.554;8.820;2023-08-21T10:41:26;96509.72;;;34.30;65.20
8717;BME280;4395;48.554;8.820;2023-08-21T10:43:40;96505.88;;;34.66;63.43
8717;BME280;4395;48.554;8.820;2023-08-21T10:45:53;96505.47;;;34.64;64.55
8717;BME280;4395;48.554;8.820;2023-08-21T10:47:57;96501.91;;;34.67;63.33
8717;BME280;4395;48.554;8.820;2023-08-21T10:50:02;96500.28;;;34.63;63.93
8717;BME280;4395;48.554;8.820;2023-08-21T10:52:05;96504.75;;;34.85;63.71
8717;BME280;4395;48.554;8.820;2023-08-21T10:54:11;96501.59;;;34.97;62.61
8717;BME280;4395;48.554;8.820;2023-08-21T10:56:15;96505.19;;;35.05;62.27
8717;BME280;4395;48.554;8.820;2023-08-21T10:58:18;96493.22;;;35.08;62.52
8717;BME280;4395;48.554;8.820;2023-08-21T11:00:22;96496.41;;;35.17;61.01
8717;BME280;4395;48.554;8.820;2023-08-21T11:02:26;96502.81;;;33.47;68.85
8717;BME280;4395;48.554;8.820;2023-08-21T11:04:39;96494.00;;;34.84;63.07
8717;BME280;4395;48.554;8.820;2023-08-21T11:06:42;96493.25;;;35.47;61.48
8717;BME280;4395;48.554;8.820;2023-08-21T11:08:46;96501.22;;;35.56;59.25